Pocola, Oklahoma
Current Conditions -  °F | °C
As of 9:53 PM on Friday 31 Oct 2014 (Local Time) from KFSM Reporting Station
Clear Clear  
Wind Chill: 39°   Ceiling: Unl
Heat Index: 44°   Visibility: 10mi
Dew Point: 25°   Wind: 9mph
Humidity: 47%   Direction: 20°NNE
Pressure: 30.4"   Gusts: NA
Location:  35.23°N, 94.48°W
Report Text: KFSM 010253Z 02008KT 10SM CLR 07/M04 A3040 RMK AO2 SLP295 T00671039 51016
Loading
Personal Weather Stations






























Interactive Weather Map
Tropical Storm Tracking
New forecast layout! Learn more

10-Day Weather Forecast

Advertisements
Track Severe Weather on mobile